Time;durP1;ratioP1;P1;durP2;ratioP2;P2;SDS_P1;SDS_P2;PMS_P1;PMS_P2;Temp;Humidity;BMP_temperature;BMP_pressure;BME280_temperature;BME280_humidity;BME280_pressure;Samples;Min_cycle;Max_cycle;Signal;HPM_P1;HPM_P2
2022/08/01 00:02:26;;;;;;;3.53;3.20;;;;;;;26.77;37.56;94932.13;6110075;28;104836;-57
2022/08/01 00:05:29;;;;;;;3.40;3.20;;;;;;;26.73;37.54;94936.63;6108802;28;103750;-57
2022/08/01 00:08:33;;;;;;;3.43;3.20;;;;;;;26.71;37.35;94934.25;6108784;28;104128;-58
2022/08/01 00:11:36;;;;;;;3.93;3.53;;;;;;;26.70;37.59;94939.97;6101606;28;104992;-57
2022/08/01 00:14:40;;;;;;;3.10;2.90;;;;;;;26.71;37.47;94936.94;6116955;28;105139;-58
2022/08/01 00:17:44;;;;;;;2.60;2.40;;;;;;;26.93;37.46;94949.13;6109614;28;103460;-57
2022/08/01 00:20:47;;;;;;;3.13;2.93;;;;;;;27.07;37.04;94946.84;6110666;28;105122;-57
2022/08/01 00:23:50;;;;;;;3.77;3.47;;;;;;;27.18;36.51;94952.50;6098324;28;105177;-57
2022/08/01 00:26:53;;;;;;;3.80;3.50;;;;;;;27.25;36.48;94963.47;6109784;28;103947;-58
2022/08/01 00:29:58;;;;;;;4.40;4.10;;;;;;;27.32;36.94;94952.16;6107882;28;103871;-58
2022/08/01 00:33:16;;;;;;;4.10;3.83;;;;;;;27.33;36.97;94949.13;6104218;28;106509;-58
2022/08/01 00:36:19;;;;;;;5.20;4.90;;;;;;;27.40;37.49;94949.34;6105711;28;104370;-58
2022/08/01 00:39:22;;;;;;;5.00;4.70;;;;;;;27.40;37.44;94952.03;6109039;28;103419;-58
2022/08/01 00:42:25;;;;;;;5.10;4.80;;;;;;;27.38;37.04;94953.47;6109000;28;103907;-57
2022/08/01 00:45:29;;;;;;;5.40;5.07;;;;;;;27.34;37.06;94961.44;6099942;28;103713;-59
2022/08/01 00:48:32;;;;;;;5.67;5.27;;;;;;;27.25;37.75;94936.59;6107055;28;103795;-57
2022/08/01 00:51:36;;;;;;;5.43;5.03;;;;;;;27.37;37.20;94955.38;6108700;28;104837;-58
2022/08/01 00:54:40;;;;;;;5.93;5.03;;;;;;;27.42;37.42;94952.47;6107264;28;103825;-59
2022/08/01 00:57:43;;;;;;;5.40;5.00;;;;;;;27.33;37.34;94938.38;6098029;28;103936;-57
2022/08/01 01:01:07;;;;;;;5.20;4.80;;;;;;;27.39;37.42;94945.09;6108586;28;106251;-58
2022/08/01 01:04:14;;;;;;;5.37;4.97;;;;;;;27.21;37.01;94949.13;6107425;28;103751;-57
2022/08/01 01:07:22;;;;;;;6.10;5.63;;;;;;;27.04;37.35;94942.13;6099609;28;104909;-59
2022/08/01 01:10:31;;;;;;;6.43;5.93;;;;;;;26.89;38.09;94936.72;6106853;28;103817;-59
2022/08/01 01:13:38;;;;;;;5.53;5.23;;;;;;;26.80;37.75;94934.94;6109168;28;103847;-58
2022/08/01 01:16:55;;;;;;;5.03;4.73;;;;;;;26.73;38.17;94926.66;6108610;28;104977;-57
2022/08/01 01:20:01;;;;;;;5.60;5.30;;;;;;;26.52;37.92;94899.13;6100455;28;103773;-57
2022/08/01 01:23:30;;;;;;;5.70;5.20;;;;;;;26.69;38.04;94935.72;6107163;28;103754;-56
2022/08/01 01:26:42;;;;;;;5.53;5.23;;;;;;;26.67;37.92;94928.00;6098451;28;103869;-57
2022/08/01 01:29:51;;;;;;;5.77;5.43;;;;;;;26.66;37.98;94929.13;6096465;28;103440;-57
2022/08/01 01:33:06;;;;;;;5.07;4.77;;;;;;;26.77;38.25;94924.88;6105900;28;103849;-57
2022/08/01 01:36:12;;;;;;;5.73;5.33;;;;;;;26.92;37.88;94922.59;6107842;28;103810;-56
2022/08/01 01:39:17;;;;;;;5.60;5.20;;;;;;;26.98;37.79;94911.28;6109749;28;103993;-57
2022/08/01 01:42:21;;;;;;;5.47;5.03;;;;;;;27.07;37.66;94913.84;6103147;28;104127;-56
2022/08/01 01:45:27;;;;;;;5.87;5.37;;;;;;;27.14;37.40;94914.81;6112602;28;104074;-58
2022/08/01 01:48:30;;;;;;;6.03;5.57;;;;;;;27.17;37.16;94907.97;6102015;28;103897;-57
2022/08/01 01:51:34;;;;;;;5.50;5.10;;;;;;;27.17;37.17;94907.97;6113261;28;103855;-56
2022/08/01 01:54:41;;;;;;;4.87;4.57;;;;;;;27.18;37.48;94910.31;6102892;28;104137;-55
2022/08/01 01:57:46;;;;;;;5.13;4.73;;;;;;;27.13;37.17;94897.13;6109300;28;103972;-58
2022/08/01 02:00:53;;;;;;;4.60;4.30;;;;;;;27.09;37.33;94901.63;6112263;28;103810;-58
2022/08/01 02:03:58;;;;;;;4.53;4.23;;;;;;;26.96;36.62;94891.25;6108085;28;104901;-58
2022/08/01 02:07:04;;;;;;;7.13;4.37;;;;;;;26.80;37.31;94900.03;6107821;28;104502;-61
2022/08/01 02:10:09;;;;;;;4.37;4.07;;;;;;;26.73;37.04;94894.44;6113971;28;106026;-57
2022/08/01 02:13:13;;;;;;;4.20;3.80;;;;;;;26.63;36.82;94894.09;6110725;28;103472;-58
2022/08/01 02:16:18;;;;;;;4.43;4.03;;;;;;;26.61;37.32;94899.81;6101172;28;103933;-57
2022/08/01 02:19:21;;;;;;;4.23;3.83;;;;;;;26.45;37.14;94883.59;6112652;28;104763;-56
2022/08/01 02:22:29;;;;;;;4.10;3.73;;;;;;;26.54;37.15;94896.88;6113379;28;104373;-57
2022/08/01 02:25:37;;;;;;;3.60;3.40;;;;;;;26.51;36.41;94897.56;6098077;28;103812;-58
2022/08/01 02:29:06;;;;;;;3.90;3.60;;;;;;;26.60;36.69;94887.50;6099019;28;103761;-57
2022/08/01 02:32:15;;;;;;;4.00;3.50;;;;;;;26.74;36.47;94889.88;6111640;28;103803;-57
2022/08/01 02:35:24;;;;;;;3.17;2.93;;;;;;;26.81;35.87;94884.69;6110744;28;103964;-57
2022/08/01 02:38:29;;;;;;;4.83;3.17;;;;;;;26.86;35.96;94879.06;6103968;28;104068;-56
2022/08/01 02:41:37;;;;;;;3.60;3.30;;;;;;;26.94;35.36;94888.91;6111612;28;103967;-58
2022/08/01 02:44:43;;;;;;;3.43;3.20;;;;;;;27.03;35.63;94899.50;6112651;28;104936;-57
2022/08/01 02:47:50;;;;;;;3.93;3.50;;;;;;;27.09;35.23;94896.25;6112528;28;103933;-57
2022/08/01 02:50:56;;;;;;;6.10;4.47;;;;;;;27.17;35.77;94891.84;6101480;28;104937;-57
2022/08/01 02:54:02;;;;;;;5.20;4.80;;;;;;;27.08;35.52;94889.31;6109411;28;104526;-57
2022/08/01 02:57:07;;;;;;;7.27;6.67;;;;;;;26.90;35.72;94888.03;6112738;28;103639;-57
2022/08/01 03:00:16;;;;;;;11.70;10.60;;;;;;;26.76;36.10;94893.00;6102124;28;103826;-58
2022/08/01 03:03:23;;;;;;;9.17;8.37;;;;;;;26.69;35.51;94893.53;6105899;28;104716;-58
2022/08/01 03:06:27;;;;;;;6.30;5.80;;;;;;;26.53;35.84;94890.75;6096078;28;103765;-57
2022/08/01 03:09:33;;;;;;;6.17;5.67;;;;;;;26.50;36.71;94885.28;6111349;28;103738;-56
2022/08/01 03:12:39;;;;;;;8.80;6.40;;;;;;;26.48;36.01;94884.84;6102540;28;103781;-56
2022/08/01 03:15:44;;;;;;;6.10;5.60;;;;;;;26.41;36.41;94895.38;6110825;28;104834;-56
2022/08/01 03:18:50;;;;;;;5.37;4.97;;;;;;;26.36;36.03;94890.97;6112476;28;103899;-57
2022/08/01 03:21:54;;;;;;;6.10;4.60;;;;;;;26.43;35.51;94890.44;6111168;28;104538;-57
2022/08/01 03:25:00;;;;;;;5.67;5.17;;;;;;;26.57;35.63;94897.03;6100735;28;105245;-56
2022/08/01 03:28:05;;;;;;;5.53;5.07;;;;;;;26.35;35.68;94857.22;6108359;28;103728;-58
2022/08/01 03:31:09;;;;;;;8.07;7.37;;;;;;;26.71;34.77;94896.66;6108753;28;104000;-57
2022/08/01 03:34:14;;;;;;;6.53;5.90;;;;;;;26.76;34.42;94898.34;6103072;28;103831;-59
2022/08/01 03:37:25;;;;;;;6.20;4.70;;;;;;;26.64;34.02;94901.84;6104735;28;105251;-58
2022/08/01 03:40:36;;;;;;;4.40;4.00;;;;;;;25.47;35.79;94890.75;6106953;28;104803;-57
2022/08/01 03:43:46;;;;;;;5.00;4.60;;;;;;;26.11;35.59;94911.69;6106893;28;103894;-58
2022/08/01 03:46:57;;;;;;;4.23;3.83;;;;;;;25.15;36.90;94913.72;6098026;28;104122;-58
2022/08/01 03:50:03;;;;;;;5.50;4.00;;;;;;;25.47;36.63;94893.44;6107526;28;104138;-57
2022/08/01 03:53:14;;;;;;;6.97;6.37;;;;;;;25.96;36.34;94909.63;6111452;28;104910;-58
2022/08/01 03:56:20;;;;;;;6.20;5.80;;;;;;;26.04;36.55;94903.38;6108965;28;103941;-58
2022/08/01 03:59:23;;;;;;;9.80;5.80;;;;;;;25.96;36.32;94905.03;6100423;28;103785;-57
2022/08/01 04:02:28;;;;;;;6.17;5.60;;;;;;;25.67;37.16;94897.94;6104526;28;105252;-56
2022/08/01 04:05:32;;;;;;;17.83;7.33;;;;;;;25.87;37.22;94900.88;6108456;28;103801;-57
2022/08/01 04:08:37;;;;;;;20.00;15.90;;;;;;;25.88;37.95;94905.16;6101740;28;104789;-58
2022/08/01 04:11:40;;;;;;;11.67;10.50;;;;;;;25.89;37.55;94904.03;6073985;28;104116;-57
2022/08/01 04:14:44;;;;;;;14.73;8.80;;;;;;;26.04;37.56;94906.06;6096678;28;103695;-56
2022/08/01 04:17:47;;;;;;;11.53;6.57;;;;;;;26.04;37.62;94918.69;6106772;28;103788;-57
2022/08/01 04:20:52;;;;;;;7.83;6.90;;;;;;;26.16;37.37;94911.44;6097073;28;105968;-59
2022/08/01 04:23:59;;;;;;;9.50;7.10;;;;;;;26.23;37.48;94892.91;6109091;28;105199;-58
2022/08/01 04:27:05;;;;;;;8.33;6.80;;;;;;;26.30;36.86;94916.50;6108397;28;104785;-65
2022/08/01 04:30:10;;;;;;;7.50;6.90;;;;;;;26.35;36.84;94894.78;6108619;28;104210;-58
2022/08/01 04:33:21;;;;;;;7.40;6.50;;;;;;;26.53;37.32;94908.75;6089847;28;104823;-57
2022/08/01 04:36:29;;;;;;;12.40;11.17;;;;;;;26.55;36.82;94909.22;6106793;28;104448;-57
2022/08/01 04:39:36;;;;;;;12.97;11.70;;;;;;;26.60;36.79;94908.97;6105429;28;103694;-58
2022/08/01 04:42:53;;;;;;;9.77;8.77;;;;;;;26.36;37.01;94848.06;6101291;28;103802;-63
2022/08/01 04:45:57;;;;;;;7.80;7.07;;;;;;;26.75;36.62;94904.84;6105133;28;104346;-57
2022/08/01 04:49:01;;;;;;;9.13;8.20;;;;;;;26.45;36.85;94894.34;6108245;28;103731;-58
2022/08/01 04:52:06;;;;;;;13.97;11.30;;;;;;;26.50;36.64;94912.09;6111057;28;104785;-56
2022/08/01 04:55:12;;;;;;;12.50;10.97;;;;;;;26.35;36.96;94899.38;6101848;28;103764;-57
2022/08/01 04:58:16;;;;;;;12.37;10.43;;;;;;;26.26;37.70;94902.19;6110675;28;103716;-56
2022/08/01 05:01:20;;;;;;;14.03;10.60;;;;;;;26.17;38.79;94888.88;6111235;28;104483;-57
2022/08/01 05:04:23;;;;;;;9.17;8.27;;;;;;;26.06;38.47;94895.03;6109701;28;104251;-57
2022/08/01 05:07:28;;;;;;;9.73;8.83;;;;;;;25.57;39.04;94873.50;6101511;28;104982;-57
2022/08/01 05:10:31;;;;;;;9.20;8.30;;;;;;;25.79;39.07;94891.84;6110957;28;103880;-57
2022/08/01 05:13:34;;;;;;;9.93;7.53;;;;;;;25.65;39.50;94894.03;6110285;28;104833;-57
2022/08/01 05:16:37;;;;;;;10.73;9.77;;;;;;;25.03;40.31;94871.63;6108793;28;104798;-56
2022/08/01 05:19:42;;;;;;;9.20;8.37;;;;;;;25.40;40.47;94887.06;6109533;28;103471;-58
2022/08/01 05:22:47;;;;;;;15.07;7.53;;;;;;;25.53;41.60;94886.75;6114880;28;104019;-56
2022/08/01 05:25:50;;;;;;;14.43;7.60;;;;;;;25.53;41.71;94875.25;6114694;28;103394;-57
2022/08/01 05:29:00;;;;;;;7.80;7.10;;;;;;;25.17;42.03;94895.41;6103922;28;103958;-56
2022/08/01 05:32:03;;;;;;;10.40;6.97;;;;;;;24.51;44.38;94895.25;6114497;28;105094;-57
2022/08/01 05:35:08;;;;;;;11.33;7.00;;;;;;;24.94;43.24;94886.97;6136957;28;103857;-57
2022/08/01 05:38:13;;;;;;;8.43;7.67;;;;;;;24.59;44.78;94891.75;6138242;28;103912;-55
2022/08/01 05:41:17;;;;;;;17.37;8.40;;;;;;;24.66;45.45;94901.94;6127341;28;103792;-55
2022/08/01 05:44:20;;;;;;;10.03;9.03;;;;;;;24.62;45.63;94893.78;6138557;28;104975;-57
2022/08/01 05:47:23;;;;;;;8.70;8.00;;;;;;;24.85;45.51;94894.28;6138022;28;104950;-57
2022/08/01 05:50:26;;;;;;;8.23;7.63;;;;;;;24.52;45.46;94898.72;6137125;28;103687;-57
2022/08/01 05:53:34;;;;;;;8.23;7.20;;;;;;;24.71;44.66;94885.75;6129888;28;105588;-57
2022/08/01 05:56:37;;;;;;;8.50;7.80;;;;;;;24.88;46.73;94895.53;6137836;28;103991;-58
2022/08/01 05:59:40;;;;;;;8.20;7.60;;;;;;;25.05;44.49;94887.38;6137694;28;104881;-58
2022/08/01 06:02:43;;;;;;;7.17;6.57;;;;;;;25.32;45.32;94910.88;6112919;28;105204;-56
2022/08/01 06:05:47;;;;;;;7.60;6.90;;;;;;;25.44;44.48;94877.25;6113012;28;103841;-57
2022/08/01 06:08:51;;;;;;;8.33;7.53;;;;;;;25.58;45.21;94894.59;6113649;28;104232;-56
2022/08/01 06:11:54;;;;;;;7.80;6.90;;;;;;;25.67;44.43;94899.84;6113579;28;104978;-55
2022/08/01 06:14:58;;;;;;;7.97;6.93;;;;;;;25.74;44.16;94904.69;6102902;28;105064;-55
2022/08/01 06:18:02;;;;;;;6.50;5.90;;;;;;;26.04;41.88;94894.56;6113370;28;103779;-55
2022/08/01 06:21:05;;;;;;;5.40;4.90;;;;;;;26.19;39.49;94900.03;6113702;28;104654;-56
2022/08/01 06:24:09;;;;;;;5.00;4.50;;;;;;;26.28;36.98;94897.25;6113746;28;103988;-55
2022/08/01 06:27:13;;;;;;;4.50;4.20;;;;;;;26.31;35.64;94890.44;6101329;28;103824;-56
2022/08/01 06:30:24;;;;;;;4.53;4.13;;;;;;;26.31;35.14;94883.16;6112887;28;104814;-56
2022/08/01 06:33:28;;;;;;;4.00;3.70;;;;;;;26.46;34.59;94897.81;6113162;28;103755;-56
2022/08/01 06:36:31;;;;;;;3.90;3.30;;;;;;;26.54;34.75;94896.88;6106757;28;104880;-59
2022/08/01 06:39:35;;;;;;;3.03;2.83;;;;;;;26.64;33.93;94888.41;6109388;28;103834;-55
2022/08/01 06:42:39;;;;;;;3.87;3.57;;;;;;;26.61;34.02;94882.91;6113218;28;105173;-56
2022/08/01 06:45:42;;;;;;;5.20;3.60;;;;;;;26.56;33.55;94878.56;6113017;28;103801;-56
2022/08/01 06:48:45;;;;;;;3.50;3.20;;;;;;;26.22;34.32;94871.78;6102627;28;104882;-56
2022/08/01 06:51:48;;;;;;;3.97;2.93;;;;;;;26.19;34.00;94869.75;6112832;28;104786;-57
2022/08/01 06:54:53;;;;;;;4.10;3.50;;;;;;;26.07;34.38;94867.09;6112602;28;104907;-57
2022/08/01 06:57:56;;;;;;;3.03;2.83;;;;;;;25.99;34.23;94863.38;6113098;28;104744;-57
2022/08/01 07:01:00;;;;;;;5.93;3.00;;;;;;;25.86;34.61;94859.09;6103372;28;104021;-56
2022/08/01 07:04:03;;;;;;;3.20;2.80;;;;;;;25.79;34.19;94851.63;6112470;28;104735;-58
2022/08/01 07:07:07;;;;;;;3.50;3.20;;;;;;;25.85;34.29;94857.53;6112149;28;104759;-56
2022/08/01 07:10:12;;;;;;;2.87;2.67;;;;;;;25.82;34.78;94860.91;6107151;28;103927;-57
2022/08/01 07:13:20;;;;;;;3.37;3.17;;;;;;;25.96;34.66;94861.34;6107983;28;103478;-56
2022/08/01 07:16:23;;;;;;;3.30;3.00;;;;;;;26.16;34.03;94865.84;6112694;28;103674;-57
2022/08/01 07:19:26;;;;;;;3.93;3.50;;;;;;;26.25;34.07;94868.44;6111856;28;105205;-56
2022/08/01 07:22:29;;;;;;;3.43;3.10;;;;;;;26.35;33.90;94873.31;6102160;28;104317;-57
2022/08/01 07:25:34;;;;;;;7.90;3.40;;;;;;;26.50;33.69;94867.28;6111980;28;104881;-57
2022/08/01 07:28:37;;;;;;;10.93;3.20;;;;;;;26.61;33.94;94875.66;6112341;28;104820;-56
2022/08/01 07:31:46;;;;;;;13.43;3.50;;;;;;;26.67;34.08;94877.00;6111670;28;104713;-55
2022/08/01 07:34:49;;;;;;;6.83;3.23;;;;;;;27.10;33.44;94875.53;6102021;28;105035;-58
2022/08/01 07:37:52;;;;;;;11.40;3.90;;;;;;;27.50;33.39;94866.63;6111167;28;104288;-55
2022/08/01 07:40:57;;;;;;;11.53;3.70;;;;;;;27.71;33.57;94875.25;6111153;28;104529;-55
2022/08/01 07:44:00;;;;;;;10.97;3.23;;;;;;;27.79;33.72;94858.16;6108663;28;104926;-54
2022/08/01 07:47:07;;;;;;;9.10;3.60;;;;;;;27.77;33.34;94866.59;6129752;28;103858;-54
2022/08/01 07:50:12;;;;;;;25.23;18.20;;;;;;;27.56;33.78;94857.22;6135792;28;103891;-57
2022/08/01 07:53:15;;;;;;;89.00;80.67;;;;;;;27.17;34.24;94865.75;6136243;28;103741;-57
2022/08/01 07:56:20;;;;;;;90.37;82.50;;;;;;;27.13;34.00;94862.19;6125283;28;103952;-57
2022/08/01 07:59:23;;;;;;;67.43;60.53;;;;;;;27.04;33.79;94853.50;6136040;28;104358;-57
2022/08/01 08:02:28;;;;;;;51.53;45.13;;;;;;;27.02;34.69;94863.03;6121681;28;104749;-56
2022/08/01 08:05:32;;;;;;;45.97;34.30;;;;;;;27.01;35.63;94870.28;6111627;28;105043;-56
2022/08/01 08:08:55;;;;;;;31.20;22.50;;;;;;;27.12;35.89;94870.59;6099871;28;103790;-57
2022/08/01 08:12:00;;;;;;;27.40;21.20;;;;;;;27.30;35.59;94866.50;6111299;28;103876;-57
2022/08/01 08:15:05;;;;;;;30.60;21.30;;;;;;;27.44;35.91;94885.72;6111488;28;104098;-59
2022/08/01 08:18:08;;;;;;;28.27;18.70;;;;;;;27.62;35.42;94880.00;6106041;28;103737;-59
2022/08/01 08:21:11;;;;;;;28.50;16.57;;;;;;;27.76;35.95;94891.13;6105501;28;105039;-59
2022/08/01 08:24:20;;;;;;;31.23;15.90;;;;;;;27.90;35.81;94880.78;6110913;28;104619;-58
2022/08/01 08:27:31;;;;;;;41.40;15.80;;;;;;;27.92;36.17;94873.13;6110847;28;103665;-60
2022/08/01 08:30:39;;;;;;;27.10;13.47;;;;;;;28.06;36.72;94878.06;6100960;28;104735;-60
2022/08/01 08:33:42;;;;;;;33.03;11.10;;;;;;;28.10;36.75;94875.47;6110464;28;103846;-60
2022/08/01 08:36:45;;;;;;;30.37;10.93;;;;;;;28.14;37.08;94879.78;6110902;28;105130;-60
2022/08/01 08:39:50;;;;;;;38.60;11.07;;;;;;;28.10;37.24;94881.63;6109693;28;104701;-60
2022/08/01 08:42:54;;;;;;;27.57;10.47;;;;;;;27.90;39.33;94864.63;6101155;28;104476;-60
2022/08/01 08:45:58;;;;;;;42.23;9.40;;;;;;;27.81;38.67;94863.19;6109815;28;104113;-61
2022/08/01 08:49:04;;;;;;;38.37;7.90;;;;;;;27.68;39.66;94857.91;6110805;28;103683;-54
2022/08/01 08:52:09;;;;;;;28.73;7.03;;;;;;;27.48;39.43;94876.94;6105681;28;103757;-61
2022/08/01 08:55:15;;;;;;;23.33;6.13;;;;;;;27.42;38.35;94871.06;6105143;28;104790;-55
2022/08/01 08:58:21;;;;;;;22.13;6.37;;;;;;;27.53;39.32;94863.25;6110581;28;103767;-57
2022/08/01 09:01:34;;;;;;;52.47;38.33;;;;;;;27.58;39.42;94863.81;6110345;28;105193;-55
2022/08/01 09:04:39;;;;;;;68.10;61.87;;;;;;;27.61;38.20;94867.69;6100105;28;103944;-54
2022/08/01 09:07:42;;;;;;;52.60;47.00;;;;;;;27.55;37.59;94864.47;6109513;28;104036;-56
2022/08/01 09:10:46;;;;;;;46.50;42.50;;;;;;;27.99;38.52;94854.47;6109602;28;104799;-52
2022/08/01 09:14:08;;;;;;;44.87;40.80;;;;;;;28.34;37.73;94856.41;6110441;28;103913;-55
2022/08/01 09:17:12;;;;;;;41.50;37.40;;;;;;;28.55;37.66;94851.50;6098947;28;103650;-55
2022/08/01 09:20:24;;;;;;;38.43;34.80;;;;;;;28.67;37.24;94852.53;6110031;28;103726;-55
2022/08/01 09:23:34;;;;;;;25.17;22.53;;;;;;;28.62;36.32;94846.31;6109945;28;103790;-55
2022/08/01 09:26:37;;;;;;;18.63;14.03;;;;;;;28.48;35.86;94850.59;6104748;28;103669;-57
2022/08/01 09:29:44;;;;;;;20.17;10.57;;;;;;;28.36;36.08;94848.75;6105473;28;103930;-55
2022/08/01 09:32:56;;;;;;;19.90;8.60;;;;;;;28.29;35.05;94845.91;6109994;28;104904;-54
2022/08/01 09:35:59;;;;;;;11.47;6.47;;;;;;;28.22;35.04;94849.22;6110323;28;103945;-57
2022/08/01 09:39:13;;;;;;;13.43;5.00;;;;;;;28.04;34.31;94848.81;6099439;28;104101;-58
2022/08/01 09:42:21;;;;;;;8.37;4.57;;;;;;;27.89;34.24;94846.94;6109211;28;104663;-59
2022/08/01 09:45:34;;;;;;;9.73;4.73;;;;;;;27.94;35.82;94852.03;6109259;28;104761;-58
2022/08/01 09:48:59;;;;;;;10.47;4.73;;;;;;;28.24;35.05;94835.44;6108825;28;105060;-55
2022/08/01 09:52:13;;;;;;;9.50;4.40;;;;;;;28.33;35.51;94850.25;6103441;28;105064;-56
2022/08/01 09:55:22;;;;;;;6.60;4.20;;;;;;;28.37;35.21;94850.31;6109637;28;103794;-56
2022/08/01 09:58:25;;;;;;;5.87;3.33;;;;;;;28.34;35.06;94851.81;6109901;28;103713;-56
2022/08/01 10:01:43;;;;;;;4.37;3.13;;;;;;;28.33;35.52;94838.69;6098343;28;104214;-56
2022/08/01 10:04:50;;;;;;;7.07;4.13;;;;;;;28.34;35.24;94842.94;6114220;28;104778;-55
2022/08/01 10:07:58;;;;;;;15.07;4.03;;;;;;;28.45;35.76;94835.13;6113454;28;103769;-55
2022/08/01 10:11:09;;;;;;;7.83;4.50;;;;;;;28.58;35.71;94829.28;6113514;28;103683;-57
2022/08/01 10:14:15;;;;;;;18.87;11.67;;;;;;;28.71;34.84;94831.84;6101603;28;104745;-57
2022/08/01 10:17:25;;;;;;;19.33;17.40;;;;;;;28.82;35.37;94820.16;6112982;28;103795;-58
2022/08/01 10:20:48;;;;;;;24.47;20.27;;;;;;;28.91;34.67;94831.50;6113637;28;103303;-57
2022/08/01 10:23:55;;;;;;;21.60;19.37;;;;;;;28.90;34.87;94811.09;6103176;28;106741;-63
2022/08/01 10:27:07;;;;;;;22.27;19.97;;;;;;;28.82;35.40;94811.28;6113897;28;105713;-56
2022/08/01 10:30:14;;;;;;;22.97;18.97;;;;;;;28.93;35.33;94828.47;6112685;28;104671;-56
2022/08/01 10:33:27;;;;;;;19.73;18.03;;;;;;;29.00;34.63;94825.09;6113057;28;104083;-56
2022/08/01 10:36:50;;;;;;;17.00;15.40;;;;;;;29.05;34.88;94819.44;6102939;28;103596;-57
2022/08/01 10:39:55;;;;;;;16.37;14.77;;;;;;;29.04;34.71;94831.34;6113332;28;104850;-57
2022/08/01 10:43:19;;;;;;;14.20;12.80;;;;;;;29.06;35.31;94821.00;6113158;28;106117;-58
2022/08/01 10:46:24;;;;;;;13.60;11.77;;;;;;;28.88;35.11;94794.47;6101945;28;103707;-56
2022/08/01 10:49:33;;;;;;;12.30;11.07;;;;;;;28.93;34.93;94809.59;6112274;28;103950;-57
2022/08/01 10:52:36;;;;;;;15.03;9.80;;;;;;;28.84;35.07;94809.03;6112345;28;103568;-57
2022/08/01 10:56:00;;;;;;;9.53;8.60;;;;;;;28.82;35.28;94819.38;6112819;28;104806;-55
2022/08/01 10:59:05;;;;;;;9.67;8.67;;;;;;;28.72;36.09;94801.06;6100882;28;104908;-57
2022/08/01 11:02:27;;;;;;;7.80;7.23;;;;;;;28.66;36.33;94800.59;6112631;28;104860;-56
2022/08/01 11:05:36;;;;;;;7.13;6.50;;;;;;;28.55;36.31;94781.50;6112648;28;103726;-56
2022/08/01 11:08:39;;;;;;;10.70;9.63;;;;;;;28.74;36.77;94798.84;6107160;28;104676;-57
2022/08/01 11:12:04;;;;;;;13.37;12.17;;;;;;;28.87;36.95;94795.63;6108144;28;103425;-56
2022/08/01 11:15:30;;;;;;;16.30;14.80;;;;;;;28.87;36.53;94787.53;6111252;28;104938;-54
2022/08/01 11:18:34;;;;;;;16.83;14.90;;;;;;;29.00;36.19;94796.25;6111384;28;103726;-56
2022/08/01 11:22:03;;;;;;;18.07;14.80;;;;;;;29.16;35.92;94806.97;6101467;28;104282;-57
2022/08/01 11:25:07;;;;;;;16.83;14.20;;;;;;;29.14;35.90;94799.25;6112156;28;103885;-56
2022/08/01 11:28:19;;;;;;;15.10;13.60;;;;;;;29.14;35.76;94793.06;6111940;28;104723;-55
2022/08/01 11:31:35;;;;;;;12.70;11.50;;;;;;;29.14;35.77;94798.47;6102167;28;103901;-59
2022/08/01 11:34:55;;;;;;;12.17;11.17;;;;;;;29.20;35.40;94794.34;6111367;28;104292;-56
2022/08/01 11:38:27;;;;;;;16.80;10.37;;;;;;;29.16;35.74;94785.41;6110629;28;103736;-56
2022/08/01 11:41:33;;;;;;;10.43;9.20;;;;;;;29.11;35.45;94778.41;6111838;28;103831;-58
2022/08/01 11:44:50;;;;;;;9.77;8.70;;;;;;;29.03;35.40;94770.50;6101062;28;104632;-56
2022/08/01 11:47:53;;;;;;;8.17;7.50;;;;;;;29.03;35.61;94790.13;6111851;28;104780;-57
2022/08/01 11:50:58;;;;;;;8.07;7.30;;;;;;;28.95;35.13;94783.06;6110392;28;103745;-56
2022/08/01 11:54:08;;;;;;;8.13;7.03;;;;;;;28.92;35.51;94791.88;6106187;28;103836;-56
2022/08/01 11:57:13;;;;;;;6.77;6.17;;;;;;;28.82;35.80;94778.97;6108789;28;103626;-55
2022/08/01 12:00:18;;;;;;;6.83;6.07;;;;;;;28.78;35.29;94786.97;6110937;28;105145;-56
2022/08/01 12:03:27;;;;;;;5.57;5.17;;;;;;;28.73;35.27;94786.47;6111486;28;104225;-56
2022/08/01 12:06:35;;;;;;;6.83;5.10;;;;;;;28.57;35.71;94776.56;6100875;28;103707;-56
2022/08/01 12:09:40;;;;;;;7.10;5.10;;;;;;;28.21;34.83;94779.59;6111634;28;104700;-55
2022/08/01 12:12:45;;;;;;;7.83;4.97;;;;;;;28.16;35.15;94777.97;6111196;28;104379;-54
2022/08/01 12:15:49;;;;;;;15.40;14.07;;;;;;;28.10;34.98;94775.91;6110760;28;103980;-54
2022/08/01 12:18:58;;;;;;;48.60;44.50;;;;;;;28.14;35.32;94779.47;6101332;28;104691;-55
2022/08/01 12:22:12;;;;;;;61.53;56.43;;;;;;;28.25;35.67;94770.50;6110019;28;103999;-54
2022/08/01 12:25:18;;;;;;;49.77;45.30;;;;;;;28.30;35.67;94780.97;6103870;28;103784;-53
2022/08/01 12:28:22;;;;;;;36.60;33.63;;;;;;;28.38;35.21;94776.50;6100535;28;103670;-54
2022/08/01 12:31:32;;;;;;;34.83;31.70;;;;;;;28.47;35.42;94770.97;6118665;28;103878;-54
2022/08/01 12:34:36;;;;;;;25.10;22.90;;;;;;;28.51;35.25;94772.59;6135071;28;104774;-54
2022/08/01 12:37:40;;;;;;;19.40;17.70;;;;;;;28.42;35.28;94785.47;6134531;28;103674;-56
2022/08/01 12:40:46;;;;;;;15.50;14.10;;;;;;;28.42;36.02;94766.63;6124849;28;104729;-57
2022/08/01 12:43:55;;;;;;;13.47;12.50;;;;;;;28.58;36.06;94770.06;6134861;28;105077;-57
2022/08/01 12:46:58;;;;;;;13.20;11.93;;;;;;;28.70;35.89;94768.34;6134749;28;103828;-60
2022/08/01 12:50:02;;;;;;;27.63;25.13;;;;;;;28.68;36.33;94776.00;6134301;28;104339;-54
2022/08/01 12:53:06;;;;;;;47.90;43.70;;;;;;;28.63;36.24;94775.16;6123092;28;103978;-54
2022/08/01 12:56:12;;;;;;;47.97;43.47;;;;;;;28.68;35.37;94776.78;6134239;28;103740;-54
2022/08/01 12:59:24;;;;;;;38.83;35.57;;;;;;;28.69;35.36;94762.16;6134133;28;104266;-55
2022/08/01 13:02:33;;;;;;;31.37;28.67;;;;;;;28.56;35.18;94772.31;6111028;28;103970;-55
2022/08/01 13:05:45;;;;;;;24.93;22.70;;;;;;;28.62;35.31;94770.13;6109536;28;104763;-54
2022/08/01 13:08:48;;;;;;;18.63;17.03;;;;;;;28.67;35.22;94763.66;6110443;28;105056;-55
2022/08/01 13:11:55;;;;;;;14.97;13.63;;;;;;;28.60;34.71;94762.41;6109491;28;103930;-55
2022/08/01 13:15:18;;;;;;;15.83;14.33;;;;;;;28.57;35.18;94765.81;6099414;28;103324;-53
2022/08/01 13:18:26;;;;;;;13.20;12.10;;;;;;;28.60;35.60;94765.09;6110381;28;103260;-54
2022/08/01 13:21:31;;;;;;;11.63;10.27;;;;;;;28.45;35.26;94759.75;6109824;28;104139;-55
2022/08/01 13:25:10;;;;;;;10.07;9.20;;;;;;;28.32;35.09;94753.69;6104505;28;105404;-55
2022/08/01 13:28:20;;;;;;;12.87;9.37;;;;;;;28.21;34.89;94760.75;6108645;28;104113;-57
2022/08/01 13:31:33;;;;;;;77.77;11.33;;;;;;;28.28;35.49;94742.09;6093990;28;103336;-56
2022/08/01 13:34:37;;;;;;;58.43;11.00;;;;;;;28.32;34.98;94751.78;6109755;28;104052;-56
2022/08/01 13:37:41;;;;;;;38.80;8.03;;;;;;;28.44;35.68;94742.81;6101751;28;104182;-56
2022/08/01 13:40:44;;;;;;;30.87;7.97;;;;;;;28.55;35.77;94749.19;6113917;28;103423;-56
2022/08/01 13:43:49;;;;;;;21.13;7.50;;;;;;;28.67;35.44;94744.81;6113386;28;103189;-56
2022/08/01 13:47:01;;;;;;;23.10;7.90;;;;;;;28.74;35.42;94740.34;6111915;28;103676;-56
2022/08/01 13:50:16;;;;;;;19.77;14.90;;;;;;;28.80;35.16;94727.38;6108368;28;104183;-56
2022/08/01 13:53:19;;;;;;;40.83;34.40;;;;;;;28.80;34.31;94736.22;6113904;28;105206;-55
2022/08/01 13:56:22;;;;;;;41.23;37.33;;;;;;;28.86;35.07;94736.72;6112597;28;104948;-55
2022/08/01 13:59:27;;;;;;;37.80;34.20;;;;;;;28.91;34.87;94731.06;6103168;28;103825;-55
2022/08/01 14:02:30;;;;;;;23.00;20.63;;;;;;;28.83;33.97;94727.44;6113757;28;103957;-55
2022/08/01 14:05:33;;;;;;;12.40;11.27;;;;;;;28.67;34.26;94726.75;6113175;28;104420;-56
2022/08/01 14:08:36;;;;;;;12.37;6.80;;;;;;;28.55;34.25;94727.66;6113907;28;104893;-56
2022/08/01 14:11:39;;;;;;;12.63;5.03;;;;;;;28.53;34.50;94734.53;6102684;28;104047;-56
2022/08/01 14:14:49;;;;;;;19.43;5.40;;;;;;;28.34;34.50;94732.59;6113728;28;104761;-55
2022/08/01 14:17:53;;;;;;;7.70;4.13;;;;;;;28.39;34.50;94726.13;6113521;28;103699;-55
2022/08/01 14:20:56;;;;;;;4.93;4.00;;;;;;;28.26;34.86;94729.00;6112984;28;103796;-56
2022/08/01 14:24:09;;;;;;;6.77;4.50;;;;;;;28.30;34.39;94731.75;6106695;28;103682;-55